sensor_id;sensor_type;location;lat;lon;timestamp;temperature;humidity
43087;DHT22;28708;52.224;6.924;2023-02-15T00:00:16;4.20;99.90
43087;DHT22;28708;52.224;6.924;2023-02-15T00:02:42;4.20;99.90
43087;DHT22;28708;52.224;6.924;2023-02-15T00:05:08;4.10;99.90
43087;DHT22;28708;52.224;6.924;2023-02-15T00:07:34;4.10;99.90
43087;DHT22;28708;52.224;6.924;2023-02-15T00:09:59;4.20;99.90
43087;DHT22;28708;52.224;6.924;2023-02-15T00:12:25;4.10;99.90
43087;DHT22;28708;52.224;6.924;2023-02-15T00:14:51;4.00;99.90
43087;DHT22;28708;52.224;6.924;2023-02-15T00:17:17;3.90;99.90
43087;DHT22;28708;52.224;6.924;2023-02-15T00:19:42;3.90;99.90
43087;DHT22;28708;52.224;6.924;2023-02-15T00:22:08;3.90;99.90
43087;DHT22;28708;52.224;6.924;2023-02-15T00:24:34;4.00;99.90
43087;DHT22;28708;52.224;6.924;2023-02-15T00:26:59;4.00;99.90
43087;DHT22;28708;52.224;6.924;2023-02-15T00:29:25;3.90;99.90
43087;DHT22;28708;52.224;6.924;2023-02-15T00:31:51;3.80;99.90
43087;DHT22;28708;52.224;6.924;2023-02-15T00:34:27;3.70;99.90
43087;DHT22;28708;52.224;6.924;2023-02-15T00:36:56;3.70;99.90
43087;DHT22;28708;52.224;6.924;2023-02-15T00:39:21;3.70;99.90
43087;DHT22;28708;52.224;6.924;2023-02-15T00:41:49;3.80;99.90
43087;DHT22;28708;52.224;6.924;2023-02-15T00:44:15;3.90;99.90
43087;DHT22;28708;52.224;6.924;2023-02-15T00:46:41;3.90;99.90
43087;DHT22;28708;52.224;6.924;2023-02-15T00:49:09;3.80;99.90
43087;DHT22;28708;52.224;6.924;2023-02-15T00:51:34;4.00;99.90
43087;DHT22;28708;52.224;6.924;2023-02-15T00:54:00;4.00;99.90
43087;DHT22;28708;52.224;6.924;2023-02-15T00:56:26;4.00;99.90
43087;DHT22;28708;52.224;6.924;2023-02-15T00:58:53;4.00;99.90
43087;DHT22;28708;52.224;6.924;2023-02-15T01:01:20;4.00;99.90
43087;DHT22;28708;52.224;6.924;2023-02-15T01:03:46;4.10;99.90
43087;DHT22;28708;52.224;6.924;2023-02-15T01:06:14;4.10;99.90
43087;DHT22;28708;52.224;6.924;2023-02-15T01:08:43;4.00;99.90
43087;DHT22;28708;52.224;6.924;2023-02-15T01:11:18;3.80;99.90
43087;DHT22;28708;52.224;6.924;2023-02-15T01:13:57;3.80;99.90
43087;DHT22;28708;52.224;6.924;2023-02-15T01:16:25;3.90;99.90
43087;DHT22;28708;52.224;6.924;2023-02-15T01:18:51;3.90;99.90
43087;DHT22;28708;52.224;6.924;2023-02-15T01:21:19;4.00;99.90
43087;DHT22;28708;52.224;6.924;2023-02-15T01:23:45;4.00;99.90
43087;DHT22;28708;52.224;6.924;2023-02-15T01:26:12;4.10;99.90
43087;DHT22;28708;52.224;6.924;2023-02-15T01:28:38;4.00;99.90
43087;DHT22;28708;52.224;6.924;2023-02-15T01:31:12;3.90;99.90
43087;DHT22;28708;52.224;6.924;2023-02-15T01:33:39;3.70;99.90
43087;DHT22;28708;52.224;6.924;2023-02-15T01:36:05;3.60;99.90
43087;DHT22;28708;52.224;6.924;2023-02-15T01:38:31;3.50;99.90
43087;DHT22;28708;52.224;6.924;2023-02-15T01:40:57;3.60;99.90
43087;DHT22;28708;52.224;6.924;2023-02-15T01:43:46;3.70;99.90
43087;DHT22;28708;52.224;6.924;2023-02-15T01:46:13;3.70;99.90
43087;DHT22;28708;52.224;6.924;2023-02-15T01:48:52;3.70;99.90
43087;DHT22;28708;52.224;6.924;2023-02-15T01:51:21;3.60;99.90
43087;DHT22;28708;52.224;6.924;2023-02-15T01:54:01;3.50;99.90
43087;DHT22;28708;52.224;6.924;2023-02-15T01:56:30;3.50;99.90
43087;DHT22;28708;52.224;6.924;2023-02-15T01:59:02;3.40;99.90
43087;DHT22;28708;52.224;6.924;2023-02-15T02:01:28;3.30;99.90
43087;DHT22;28708;52.224;6.924;2023-02-15T02:04:20;3.40;99.90
43087;DHT22;28708;52.224;6.924;2023-02-15T02:06:49;3.40;99.90
43087;DHT22;28708;52.224;6.924;2023-02-15T02:09:15;3.30;99.90
43087;DHT22;28708;52.224;6.924;2023-02-15T02:11:41;3.50;99.90
43087;DHT22;28708;52.224;6.924;2023-02-15T02:14:11;3.50;99.90
43087;DHT22;28708;52.224;6.924;2023-02-15T02:16:55;3.50;99.90
43087;DHT22;28708;52.224;6.924;2023-02-15T02:19:29;3.60;99.90
43087;DHT22;28708;52.224;6.924;2023-02-15T02:28:18;3.50;99.90
43087;DHT22;28708;52.224;6.924;2023-02-15T02:36:29;3.50;99.90
43087;DHT22;28708;52.224;6.924;2023-02-15T02:44:44;3.40;99.90
43087;DHT22;28708;52.224;6.924;2023-02-15T02:47:46;3.40;99.90
43087;DHT22;28708;52.224;6.924;2023-02-15T02:50:22;3.40;99.90
43087;DHT22;28708;52.224;6.924;2023-02-15T02:52:51;3.50;99.90
43087;DHT22;28708;52.224;6.924;2023-02-15T03:00:56;3.60;99.90
43087;DHT22;28708;52.224;6.924;2023-02-15T03:03:54;3.60;99.90
43087;DHT22;28708;52.224;6.924;2023-02-15T03:06:27;3.60;99.90
43087;DHT22;28708;52.224;6.924;2023-02-15T03:09:01;3.50;99.90
43087;DHT22;28708;52.224;6.924;2023-02-15T03:11:29;3.50;99.90
43087;DHT22;28708;52.224;6.924;2023-02-15T03:13:55;3.40;99.90
43087;DHT22;28708;52.224;6.924;2023-02-15T03:16:21;3.50;99.90
43087;DHT22;28708;52.224;6.924;2023-02-15T03:19:01;3.50;99.90
43087;DHT22;28708;52.224;6.924;2023-02-15T03:21:43;3.40;99.90
43087;DHT22;28708;52.224;6.924;2023-02-15T03:24:19;3.40;99.90
43087;DHT22;28708;52.224;6.924;2023-02-15T03:26:50;3.30;99.90
43087;DHT22;28708;52.224;6.924;2023-02-15T03:29:20;3.30;99.90
43087;DHT22;28708;52.224;6.924;2023-02-15T03:31:53;3.30;99.90
43087;DHT22;28708;52.224;6.924;2023-02-15T03:34:20;3.30;99.90
43087;DHT22;28708;52.224;6.924;2023-02-15T03:40:00;2.90;99.90
43087;DHT22;28708;52.224;6.924;2023-02-15T03:42:55;2.80;99.90
43087;DHT22;28708;52.224;6.924;2023-02-15T03:45:26;2.80;99.90
43087;DHT22;28708;52.224;6.924;2023-02-15T03:47:54;2.80;99.90
43087;DHT22;28708;52.224;6.924;2023-02-15T03:50:26;2.90;99.90
43087;DHT22;28708;52.224;6.924;2023-02-15T03:53:14;2.90;99.90
43087;DHT22;28708;52.224;6.924;2023-02-15T03:55:40;2.90;99.90
43087;DHT22;28708;52.224;6.924;2023-02-15T03:58:06;2.90;99.90
43087;DHT22;28708;52.224;6.924;2023-02-15T04:00:58;2.80;99.90
43087;DHT22;28708;52.224;6.924;2023-02-15T04:03:51;3.00;99.90
43087;DHT22;28708;52.224;6.924;2023-02-15T04:06:19;3.00;99.90
43087;DHT22;28708;52.224;6.924;2023-02-15T04:08:45;3.10;99.90
43087;DHT22;28708;52.224;6.924;2023-02-15T04:11:30;3.00;99.90
43087;DHT22;28708;52.224;6.924;2023-02-15T04:13:56;3.00;99.90
43087;DHT22;28708;52.224;6.924;2023-02-15T04:16:25;3.10;99.90
43087;DHT22;28708;52.224;6.924;2023-02-15T04:18:51;3.20;99.90
43087;DHT22;28708;52.224;6.924;2023-02-15T04:21:35;3.30;99.90
43087;DHT22;28708;52.224;6.924;2023-02-15T04:24:20;3.40;99.90
43087;DHT22;28708;52.224;6.924;2023-02-15T04:27:05;3.60;99.90
43087;DHT22;28708;52.224;6.924;2023-02-15T04:29:31;3.50;99.90
43087;DHT22;28708;52.224;6.924;2023-02-15T04:31:59;3.50;99.90
43087;DHT22;28708;52.224;6.924;2023-02-15T04:34:25;3.60;99.90
43087;DHT22;28708;52.224;6.924;2023-02-15T04:36:51;3.50;99.90
43087;DHT22;28708;52.224;6.924;2023-02-15T04:39:18;3.50;99.90
43087;DHT22;28708;52.224;6.924;2023-02-15T04:41:43;3.40;99.90
43087;DHT22;28708;52.224;6.924;2023-02-15T04:44:09;3.20;99.90
43087;DHT22;28708;52.224;6.924;2023-02-15T04:46:35;3.10;99.90
43087;DHT22;28708;52.224;6.924;2023-02-15T04:49:01;3.10;99.90
43087;DHT22;28708;52.224;6.924;2023-02-15T04:51:26;3.10;99.90
43087;DHT22;28708;52.224;6.924;2023-02-15T04:53:52;3.00;99.90
43087;DHT22;28708;52.224;6.924;2023-02-15T04:56:19;2.90;99.90
43087;DHT22;28708;52.224;6.924;2023-02-15T04:58:44;2.90;99.90
43087;DHT22;28708;52.224;6.924;2023-02-15T05:01:10;3.00;99.90
43087;DHT22;28708;52.224;6.924;2023-02-15T05:03:36;3.00;99.90
43087;DHT22;28708;52.224;6.924;2023-02-15T05:06:02;2.90;99.90
43087;DHT22;28708;52.224;6.924;2023-02-15T05:08:28;2.90;99.90
43087;DHT22;28708;52.224;6.924;2023-02-15T05:10:54;2.90;99.90
43087;DHT22;28708;52.224;6.924;2023-02-15T05:13:19;2.80;99.90
43087;DHT22;28708;52.224;6.924;2023-02-15T05:15:49;2.70;99.90
43087;DHT22;28708;52.224;6.924;2023-02-15T05:18:16;2.60;99.90
43087;DHT22;28708;52.224;6.924;2023-02-15T05:20:42;2.50;99.90
43087;DHT22;28708;52.224;6.924;2023-02-15T05:23:08;2.50;99.90
43087;DHT22;28708;52.224;6.924;2023-02-15T05:25:33;2.40;99.90
43087;DHT22;28708;52.224;6.924;2023-02-15T05:28:18;2.40;99.90
43087;DHT22;28708;52.224;6.924;2023-02-15T05:31:01;2.40;99.90
43087;DHT22;28708;52.224;6.924;2023-02-15T05:33:27;2.30;99.90
43087;DHT22;28708;52.224;6.924;2023-02-15T05:35:53;2.20;99.90
43087;DHT22;28708;52.224;6.924;2023-02-15T05:38:19;2.10;99.90
43087;DHT22;28708;52.224;6.924;2023-02-15T05:40:44;2.10;99.90
43087;DHT22;28708;52.224;6.924;2023-02-15T05:43:10;2.00;99.90
43087;DHT22;28708;52.224;6.924;2023-02-15T05:45:36;1.90;99.90
43087;DHT22;28708;52.224;6.924;2023-02-15T05:48:01;2.00;99.90
43087;DHT22;28708;52.224;6.924;2023-02-15T05:50:27;2.00;99.90
43087;DHT22;28708;52.224;6.924;2023-02-15T05:52:53;2.00;99.90
43087;DHT22;28708;52.224;6.924;2023-02-15T05:55:19;1.90;99.90
43087;DHT22;28708;52.224;6.924;2023-02-15T05:57:45;1.90;99.90
43087;DHT22;28708;52.224;6.924;2023-02-15T06:00:11;1.90;99.90
43087;DHT22;28708;52.224;6.924;2023-02-15T06:02:38;1.90;99.90
43087;DHT22;28708;52.224;6.924;2023-02-15T06:05:04;1.90;99.90
43087;DHT22;28708;52.224;6.924;2023-02-15T06:07:31;2.00;99.90
43087;DHT22;28708;52.224;6.924;2023-02-15T06:09:56;2.00;99.90
43087;DHT22;28708;52.224;6.924;2023-02-15T06:12:22;2.00;99.90
43087;DHT22;28708;52.224;6.924;2023-02-15T06:14:48;1.90;99.90
43087;DHT22;28708;52.224;6.924;2023-02-15T06:17:13;2.00;99.90
43087;DHT22;28708;52.224;6.924;2023-02-15T06:19:39;1.90;99.90
43087;DHT22;28708;52.224;6.924;2023-02-15T06:22:05;2.00;99.90
43087;DHT22;28708;52.224;6.924;2023-02-15T06:24:32;2.00;99.90
43087;DHT22;28708;52.224;6.924;2023-02-15T06:26:58;1.90;99.90
43087;DHT22;28708;52.224;6.924;2023-02-15T06:29:23;1.90;99.90
43087;DHT22;28708;52.224;6.924;2023-02-15T06:31:49;1.90;99.90
43087;DHT22;28708;52.224;6.924;2023-02-15T06:34:15;1.90;99.90
43087;DHT22;28708;52.224;6.924;2023-02-15T06:36:40;1.90;99.90
43087;DHT22;28708;52.224;6.924;2023-02-15T06:39:06;1.90;99.90
43087;DHT22;28708;52.224;6.924;2023-02-15T06:41:32;1.90;99.90
43087;DHT22;28708;52.224;6.924;2023-02-15T06:43:58;1.90;99.90
43087;DHT22;28708;52.224;6.924;2023-02-15T06:46:23;1.90;99.90
43087;DHT22;28708;52.224;6.924;2023-02-15T06:48:49;1.90;99.90
43087;DHT22;28708;52.224;6.924;2023-02-15T06:51:15;1.90;99.90
43087;DHT22;28708;52.224;6.924;2023-02-15T06:53:41;1.90;99.90
43087;DHT22;28708;52.224;6.924;2023-02-15T06:56:08;1.90;99.90
43087;DHT22;28708;52.224;6.924;2023-02-15T06:58:38;1.90;99.90
43087;DHT22;28708;52.224;6.924;2023-02-15T07:01:05;1.90;99.90
43087;DHT22;28708;52.224;6.924;2023-02-15T07:03:31;2.00;99.90
43087;DHT22;28708;52.224;6.924;2023-02-15T07:05:59;2.00;99.90
43087;DHT22;28708;52.224;6.924;2023-02-15T07:08:26;2.00;99.90
43087;DHT22;28708;52.224;6.924;2023-02-15T07:10:53;2.00;99.90
43087;DHT22;28708;52.224;6.924;2023-02-15T07:13:19;2.00;99.90
43087;DHT22;28708;52.224;6.924;2023-02-15T07:15:45;2.00;99.90
43087;DHT22;28708;52.224;6.924;2023-02-15T07:18:12;2.00;99.90
43087;DHT22;28708;52.224;6.924;2023-02-15T07:20:38;2.10;99.90
43087;DHT22;28708;52.224;6.924;2023-02-15T07:23:05;2.20;99.90
43087;DHT22;28708;52.224;6.924;2023-02-15T07:25:31;2.20;99.90
43087;DHT22;28708;52.224;6.924;2023-02-15T07:28:01;2.30;99.90
43087;DHT22;28708;52.224;6.924;2023-02-15T07:30:27;2.30;99.90
43087;DHT22;28708;52.224;6.924;2023-02-15T07:32:57;2.50;99.90
43087;DHT22;28708;52.224;6.924;2023-02-15T07:35:48;2.60;99.90
43087;DHT22;28708;52.224;6.924;2023-02-15T07:38:14;2.70;99.90
43087;DHT22;28708;52.224;6.924;2023-02-15T07:40:40;2.80;99.90
43087;DHT22;28708;52.224;6.924;2023-02-15T07:43:06;2.90;99.90
43087;DHT22;28708;52.224;6.924;2023-02-15T07:45:31;2.90;99.90
43087;DHT22;28708;52.224;6.924;2023-02-15T07:47:57;3.10;99.90
43087;DHT22;28708;52.224;6.924;2023-02-15T07:50:23;3.10;99.90
43087;DHT22;28708;52.224;6.924;2023-02-15T07:52:48;3.20;99.90
43087;DHT22;28708;52.224;6.924;2023-02-15T07:55:14;3.20;99.90
43087;DHT22;28708;52.224;6.924;2023-02-15T07:57:44;3.30;99.90
43087;DHT22;28708;52.224;6.924;2023-02-15T08:00:14;3.40;99.90
43087;DHT22;28708;52.224;6.924;2023-02-15T08:02:41;3.50;99.90
43087;DHT22;28708;52.224;6.924;2023-02-15T08:05:07;3.60;99.90
43087;DHT22;28708;52.224;6.924;2023-02-15T08:07:33;3.70;99.90
43087;DHT22;28708;52.224;6.924;2023-02-15T08:09:59;3.80;99.90
43087;DHT22;28708;52.224;6.924;2023-02-15T08:12:28;3.90;99.90
43087;DHT22;28708;52.224;6.924;2023-02-15T08:14:54;4.10;99.90
43087;DHT22;28708;52.224;6.924;2023-02-15T08:17:19;4.00;99.90
43087;DHT22;28708;52.224;6.924;2023-02-15T08:19:45;4.10;99.90
43087;DHT22;28708;52.224;6.924;2023-02-15T08:22:13;4.20;99.90
43087;DHT22;28708;52.224;6.924;2023-02-15T08:24:39;4.30;99.90
43087;DHT22;28708;52.224;6.924;2023-02-15T08:27:08;4.30;99.90
43087;DHT22;28708;52.224;6.924;2023-02-15T08:29:35;4.50;99.90
43087;DHT22;28708;52.224;6.924;2023-02-15T08:32:03;4.50;99.90
43087;DHT22;28708;52.224;6.924;2023-02-15T08:34:35;4.50;99.90
43087;DHT22;28708;52.224;6.924;2023-02-15T08:37:01;4.70;99.90
43087;DHT22;28708;52.224;6.924;2023-02-15T08:39:27;4.70;99.90
43087;DHT22;28708;52.224;6.924;2023-02-15T08:41:52;4.70;99.90
43087;DHT22;28708;52.224;6.924;2023-02-15T08:44:19;4.70;99.90
43087;DHT22;28708;52.224;6.924;2023-02-15T08:46:46;4.80;99.90
43087;DHT22;28708;52.224;6.924;2023-02-15T08:49:16;5.00;99.90
43087;DHT22;28708;52.224;6.924;2023-02-15T08:51:42;5.10;99.90
43087;DHT22;28708;52.224;6.924;2023-02-15T08:54:11;5.10;99.90
43087;DHT22;28708;52.224;6.924;2023-02-15T08:56:39;5.30;99.90
43087;DHT22;28708;52.224;6.924;2023-02-15T08:59:06;5.40;99.90
43087;DHT22;28708;52.224;6.924;2023-02-15T09:01:34;5.60;99.90
43087;DHT22;28708;52.224;6.924;2023-02-15T09:04:02;5.60;99.90
43087;DHT22;28708;52.224;6.924;2023-02-15T09:06:29;5.50;99.90
43087;DHT22;28708;52.224;6.924;2023-02-15T09:08:56;5.60;99.90
43087;DHT22;28708;52.224;6.924;2023-02-15T09:11:29;5.70;99.90
43087;DHT22;28708;52.224;6.924;2023-02-15T09:16:23;5.80;99.90
43087;DHT22;28708;52.224;6.924;2023-02-15T09:18:50;5.90;99.90
43087;DHT22;28708;52.224;6.924;2023-02-15T09:21:18;6.00;99.90
43087;DHT22;28708;52.224;6.924;2023-02-15T09:23:47;6.30;99.90
43087;DHT22;28708;52.224;6.924;2023-02-15T09:26:15;6.20;99.90
43087;DHT22;28708;52.224;6.924;2023-02-15T09:28:41;6.10;99.90
43087;DHT22;28708;52.224;6.924;2023-02-15T09:33:36;6.60;99.90
43087;DHT22;28708;52.224;6.924;2023-02-15T09:36:03;6.50;99.90
43087;DHT22;28708;52.224;6.924;2023-02-15T09:38:29;6.50;99.90
43087;DHT22;28708;52.224;6.924;2023-02-15T09:43:42;6.60;99.90
43087;DHT22;28708;52.224;6.924;2023-02-15T09:46:33;6.90;99.90
43087;DHT22;28708;52.224;6.924;2023-02-15T09:49:29;7.00;99.90
43087;DHT22;28708;52.224;6.924;2023-02-15T10:06:42;11.80;99.90
43087;DHT22;28708;52.224;6.924;2023-02-15T10:25:45;15.60;99.90
43087;DHT22;28708;52.224;6.924;2023-02-15T10:28:20;16.40;99.90
43087;DHT22;28708;52.224;6.924;2023-02-15T10:30:50;15.60;99.90
43087;DHT22;28708;52.224;6.924;2023-02-15T10:33:39;15.40;99.90
43087;DHT22;28708;52.224;6.924;2023-02-15T10:39:40;14.90;99.90
43087;DHT22;28708;52.224;6.924;2023-02-15T10:44:18;14.50;99.90
43087;DHT22;28708;52.224;6.924;2023-02-15T10:53:09;14.40;99.90
43087;DHT22;28708;52.224;6.924;2023-02-15T11:01:30;14.60;99.90
43087;DHT22;28708;52.224;6.924;2023-02-15T11:06:43;15.70;99.90
43087;DHT22;28708;52.224;6.924;2023-02-15T11:09:14;15.80;99.90
43087;DHT22;28708;52.224;6.924;2023-02-15T11:11:46;15.50;99.90
43087;DHT22;28708;52.224;6.924;2023-02-15T11:14:17;14.00;99.90
43087;DHT22;28708;52.224;6.924;2023-02-15T11:16:49;14.00;99.90
43087;DHT22;28708;52.224;6.924;2023-02-15T11:19:23;14.40;99.90
43087;DHT22;28708;52.224;6.924;2023-02-15T11:21:57;14.70;99.90
43087;DHT22;28708;52.224;6.924;2023-02-15T11:24:26;15.00;99.90
43087;DHT22;28708;52.224;6.924;2023-02-15T11:29:37;15.30;99.90
43087;DHT22;28708;52.224;6.924;2023-02-15T11:32:28;15.10;99.90
43087;DHT22;28708;52.224;6.924;2023-02-15T11:37:43;17.10;99.90
43087;DHT22;28708;52.224;6.924;2023-02-15T11:40:30;15.50;99.90
43087;DHT22;28708;52.224;6.924;2023-02-15T11:43:02;15.30;99.90
43087;DHT22;28708;52.224;6.924;2023-02-15T11:45:30;15.70;99.90
43087;DHT22;28708;52.224;6.924;2023-02-15T11:47:58;15.50;99.90
43087;DHT22;28708;52.224;6.924;2023-02-15T11:50:26;15.60;99.90
43087;DHT22;28708;52.224;6.924;2023-02-15T11:52:58;16.30;99.90
43087;DHT22;28708;52.224;6.924;2023-02-15T11:55:24;14.90;99.90
43087;DHT22;28708;52.224;6.924;2023-02-15T11:57:58;15.60;99.90
43087;DHT22;28708;52.224;6.924;2023-02-15T12:00:39;15.70;99.90
43087;DHT22;28708;52.224;6.924;2023-02-15T12:03:45;15.40;99.90
43087;DHT22;28708;52.224;6.924;2023-02-15T12:06:27;14.10;99.90
43087;DHT22;28708;52.224;6.924;2023-02-15T12:09:36;13.60;99.90
43087;DHT22;28708;52.224;6.924;2023-02-15T12:12:28;13.20;99.90
43087;DHT22;28708;52.224;6.924;2023-02-15T12:14:59;12.70;99.90
43087;DHT22;28708;52.224;6.924;2023-02-15T12:17:31;12.60;99.90
43087;DHT22;28708;52.224;6.924;2023-02-15T12:20:01;12.50;99.90
43087;DHT22;28708;52.224;6.924;2023-02-15T12:22:30;12.30;99.90
43087;DHT22;28708;52.224;6.924;2023-02-15T12:24:59;12.30;99.90
43087;DHT22;28708;52.224;6.924;2023-02-15T12:27:28;12.30;99.90
43087;DHT22;28708;52.224;6.924;2023-02-15T12:30:05;12.40;99.90
43087;DHT22;28708;52.224;6.924;2023-02-15T12:32:47;12.50;99.90
43087;DHT22;28708;52.224;6.924;2023-02-15T12:35:22;12.40;99.90
43087;DHT22;28708;52.224;6.924;2023-02-15T12:37:56;12.40;99.90
43087;DHT22;28708;52.224;6.924;2023-02-15T12:40:25;12.40;99.90
43087;DHT22;28708;52.224;6.924;2023-02-15T12:42:53;12.50;99.90
43087;DHT22;28708;52.224;6.924;2023-02-15T12:45:31;12.60;99.90
43087;DHT22;28708;52.224;6.924;2023-02-15T12:50:44;12.40;99.90
43087;DHT22;28708;52.224;6.924;2023-02-15T12:55:58;12.40;99.90
43087;DHT22;28708;52.224;6.924;2023-02-15T12:58:26;12.40;99.90
43087;DHT22;28708;52.224;6.924;2023-02-15T13:01:15;12.50;99.90
43087;DHT22;28708;52.224;6.924;2023-02-15T13:04:03;12.60;99.90
43087;DHT22;28708;52.224;6.924;2023-02-15T13:06:33;12.60;99.90
43087;DHT22;28708;52.224;6.924;2023-02-15T13:11:34;12.50;99.90
43087;DHT22;28708;52.224;6.924;2023-02-15T13:14:03;12.50;99.90
43087;DHT22;28708;52.224;6.924;2023-02-15T13:16:34;12.50;99.90
43087;DHT22;28708;52.224;6.924;2023-02-15T13:19:06;12.60;99.90
43087;DHT22;28708;52.224;6.924;2023-02-15T13:21:37;12.90;99.90
43087;DHT22;28708;52.224;6.924;2023-02-15T13:24:22;13.00;99.90
43087;DHT22;28708;52.224;6.924;2023-02-15T13:26:49;12.80;99.90
43087;DHT22;28708;52.224;6.924;2023-02-15T13:29:22;13.00;99.90
43087;DHT22;28708;52.224;6.924;2023-02-15T13:31:50;13.10;99.90
43087;DHT22;28708;52.224;6.924;2023-02-15T13:39:20;13.30;99.90
43087;DHT22;28708;52.224;6.924;2023-02-15T13:50:28;13.20;99.90
43087;DHT22;28708;52.224;6.924;2023-02-15T14:01:11;13.50;99.90
43087;DHT22;28708;52.224;6.924;2023-02-15T14:15:47;12.90;99.90
43087;DHT22;28708;52.224;6.924;2023-02-15T14:18:34;13.00;99.90
43087;DHT22;28708;52.224;6.924;2023-02-15T14:26:50;13.00;99.90
43087;DHT22;28708;52.224;6.924;2023-02-15T14:29:37;12.90;99.90
43087;DHT22;28708;52.224;6.924;2023-02-15T14:32:11;12.80;99.90
43087;DHT22;28708;52.224;6.924;2023-02-15T14:34:57;12.80;99.90
43087;DHT22;28708;52.224;6.924;2023-02-15T14:43:55;12.80;99.90
43087;DHT22;28708;52.224;6.924;2023-02-15T14:49:21;12.80;99.90
43087;DHT22;28708;52.224;6.924;2023-02-15T15:02:24;12.70;99.90
43087;DHT22;28708;52.224;6.924;2023-02-15T15:05:08;12.60;99.90
43087;DHT22;28708;52.224;6.924;2023-02-15T15:07:49;12.60;99.90
43087;DHT22;28708;52.224;6.924;2023-02-15T15:16:34;12.50;99.90
43087;DHT22;28708;52.224;6.924;2023-02-15T15:19:11;12.40;99.90
43087;DHT22;28708;52.224;6.924;2023-02-15T15:27:37;12.20;99.90
43087;DHT22;28708;52.224;6.924;2023-02-15T15:49:20;11.60;99.90
43087;DHT22;28708;52.224;6.924;2023-02-15T15:51:46;11.50;99.90
43087;DHT22;28708;52.224;6.924;2023-02-15T15:54:16;11.40;99.90
43087;DHT22;28708;52.224;6.924;2023-02-15T15:56:46;11.50;99.90
43087;DHT22;28708;52.224;6.924;2023-02-15T15:59:20;11.40;99.90
43087;DHT22;28708;52.224;6.924;2023-02-15T16:01:47;11.40;99.90
43087;DHT22;28708;52.224;6.924;2023-02-15T16:04:26;11.40;99.90
43087;DHT22;28708;52.224;6.924;2023-02-15T16:06:52;11.40;99.90
43087;DHT22;28708;52.224;6.924;2023-02-15T16:09:21;11.20;99.90
43087;DHT22;28708;52.224;6.924;2023-02-15T16:11:53;11.20;99.90
43087;DHT22;28708;52.224;6.924;2023-02-15T16:16:51;11.10;99.90
43087;DHT22;28708;52.224;6.924;2023-02-15T16:19:21;11.10;99.90
43087;DHT22;28708;52.224;6.924;2023-02-15T16:21:47;11.00;99.90
43087;DHT22;28708;52.224;6.924;2023-02-15T16:24:25;10.90;99.90
43087;DHT22;28708;52.224;6.924;2023-02-15T16:29:39;10.90;99.90
43087;DHT22;28708;52.224;6.924;2023-02-15T16:32:23;10.70;99.90
43087;DHT22;28708;52.224;6.924;2023-02-15T16:35:02;10.60;99.90
43087;DHT22;28708;52.224;6.924;2023-02-15T16:37:33;10.60;99.90
43087;DHT22;28708;52.224;6.924;2023-02-15T16:39:59;10.50;99.90
43087;DHT22;28708;52.224;6.924;2023-02-15T16:42:24;10.40;99.90
43087;DHT22;28708;52.224;6.924;2023-02-15T16:45:08;10.40;99.90
43087;DHT22;28708;52.224;6.924;2023-02-15T16:47:40;10.30;99.90
43087;DHT22;28708;52.224;6.924;2023-02-15T16:50:17;10.20;99.90
43087;DHT22;28708;52.224;6.924;2023-02-15T16:52:43;10.10;99.90
43087;DHT22;28708;52.224;6.924;2023-02-15T16:55:21;10.10;99.90
43087;DHT22;28708;52.224;6.924;2023-02-15T16:57:48;10.00;99.90
43087;DHT22;28708;52.224;6.924;2023-02-15T17:00:22;10.00;99.90
43087;DHT22;28708;52.224;6.924;2023-02-15T17:03:02;10.00;99.90
43087;DHT22;28708;52.224;6.924;2023-02-15T17:05:33;10.00;99.90
43087;DHT22;28708;52.224;6.924;2023-02-15T17:13:34;9.90;99.90
43087;DHT22;28708;52.224;6.924;2023-02-15T17:18:38;9.80;99.90
43087;DHT22;28708;52.224;6.924;2023-02-15T17:21:19;9.70;99.90
43087;DHT22;28708;52.224;6.924;2023-02-15T17:23:48;9.70;99.90
43087;DHT22;28708;52.224;6.924;2023-02-15T17:26:15;9.70;99.90
43087;DHT22;28708;52.224;6.924;2023-02-15T17:28:52;9.70;99.90
43087;DHT22;28708;52.224;6.924;2023-02-15T17:31:20;9.60;99.90
43087;DHT22;28708;52.224;6.924;2023-02-15T17:33:46;9.60;99.90
43087;DHT22;28708;52.224;6.924;2023-02-15T17:36:16;9.60;99.90
43087;DHT22;28708;52.224;6.924;2023-02-15T17:41:27;9.60;99.90
43087;DHT22;28708;52.224;6.924;2023-02-15T17:43:53;9.50;99.90
43087;DHT22;28708;52.224;6.924;2023-02-15T17:46:19;9.50;99.90
43087;DHT22;28708;52.224;6.924;2023-02-15T17:48:51;9.50;99.90
43087;DHT22;28708;52.224;6.924;2023-02-15T17:51:18;9.50;99.90
43087;DHT22;28708;52.224;6.924;2023-02-15T17:53:45;9.50;99.90
43087;DHT22;28708;52.224;6.924;2023-02-15T17:56:32;9.40;99.90
43087;DHT22;28708;52.224;6.924;2023-02-15T17:58:57;9.40;99.90
43087;DHT22;28708;52.224;6.924;2023-02-15T18:01:23;9.40;99.90
43087;DHT22;28708;52.224;6.924;2023-02-15T18:04:16;9.40;99.90
43087;DHT22;28708;52.224;6.924;2023-02-15T18:07:00;9.30;99.90
43087;DHT22;28708;52.224;6.924;2023-02-15T18:09:44;9.20;99.90
43087;DHT22;28708;52.224;6.924;2023-02-15T18:12:30;9.20;99.90
43087;DHT22;28708;52.224;6.924;2023-02-15T18:14:57;9.20;99.90
43087;DHT22;28708;52.224;6.924;2023-02-15T18:17:28;9.30;99.90
43087;DHT22;28708;52.224;6.924;2023-02-15T18:19:54;9.20;99.90
43087;DHT22;28708;52.224;6.924;2023-02-15T18:22:20;9.30;99.90
43087;DHT22;28708;52.224;6.924;2023-02-15T18:24:47;9.30;99.90
43087;DHT22;28708;52.224;6.924;2023-02-15T18:27:14;9.30;99.90
43087;DHT22;28708;52.224;6.924;2023-02-15T18:29:40;9.20;99.90
43087;DHT22;28708;52.224;6.924;2023-02-15T18:32:16;9.10;99.90
43087;DHT22;28708;52.224;6.924;2023-02-15T18:34:43;9.10;99.90
43087;DHT22;28708;52.224;6.924;2023-02-15T18:37:17;9.10;99.90
43087;DHT22;28708;52.224;6.924;2023-02-15T18:39:47;9.00;99.90
43087;DHT22;28708;52.224;6.924;2023-02-15T18:42:32;9.00;99.90
43087;DHT22;28708;52.224;6.924;2023-02-15T18:45:34;9.00;99.90
43087;DHT22;28708;52.224;6.924;2023-02-15T18:48:01;9.00;99.90
43087;DHT22;28708;52.224;6.924;2023-02-15T18:50:30;8.90;99.90
43087;DHT22;28708;52.224;6.924;2023-02-15T18:52:57;8.90;99.90
43087;DHT22;28708;52.224;6.924;2023-02-15T18:55:25;8.80;99.90
43087;DHT22;28708;52.224;6.924;2023-02-15T18:57:53;8.80;99.90
43087;DHT22;28708;52.224;6.924;2023-02-15T19:00:20;8.80;99.90
43087;DHT22;28708;52.224;6.924;2023-02-15T19:02:47;8.80;99.90
43087;DHT22;28708;52.224;6.924;2023-02-15T19:05:13;8.70;99.90
43087;DHT22;28708;52.224;6.924;2023-02-15T19:07:40;8.70;99.90
43087;DHT22;28708;52.224;6.924;2023-02-15T19:10:13;8.70;99.90
43087;DHT22;28708;52.224;6.924;2023-02-15T19:12:40;8.70;99.90
43087;DHT22;28708;52.224;6.924;2023-02-15T19:15:06;8.70;99.90
43087;DHT22;28708;52.224;6.924;2023-02-15T19:17:33;8.60;99.90
43087;DHT22;28708;52.224;6.924;2023-02-15T19:19:58;8.60;99.90
43087;DHT22;28708;52.224;6.924;2023-02-15T19:22:26;8.50;99.90
43087;DHT22;28708;52.224;6.924;2023-02-15T19:24:56;8.40;99.90
43087;DHT22;28708;52.224;6.924;2023-02-15T19:27:30;8.40;99.90
43087;DHT22;28708;52.224;6.924;2023-02-15T19:29:57;8.50;99.90